Time;durP1;ratioP1;P1;durP2;ratioP2;P2;SDS_P1;SDS_P2;PMS_P1;PMS_P2;Temp;Humidity;BMP_temperature;BMP_pressure;BME280_temperature;BME280_humidity;BME280_pressure;Samples;Min_cycle;Max_cycle;Signal;HPM_P1;HPM_P2
2023/05/01 05:00:22;;;;;;;;;16.33;15.00;;;;;14.89;63.75;-13604.88;6011089;22;44889;-84
2023/05/01 05:02:48;;;;;;;;;19.00;17.33;;;;;14.96;63.68;-13272.28;4937358;28;45379;-83
2023/05/01 05:05:13;;;;;;;;;16.00;16.00;;;;;15.07;63.66;-12940.19;4956369;28;45401;-83
2023/05/01 05:07:38;;;;;;;;;19.00;15.67;;;;;15.15;63.44;-13275.41;4956939;28;45412;-84
2023/05/01 05:10:04;;;;;;;;;19.33;16.00;;;;;14.76;63.63;-13269.06;4957262;28;45385;-84
2023/05/01 05:12:30;;;;;;;;;15.67;14.00;;;;;15.04;63.56;-13607.28;4956378;28;45578;-84
2023/05/01 05:14:55;;;;;;;;;16.33;15.00;;;;;15.12;63.88;-13274.81;4956786;28;45608;-83
2023/05/01 05:17:20;;;;;;;;;17.00;16.00;;;;;14.65;63.67;-13934.41;4957007;28;45370;-83
2023/05/01 05:19:46;;;;;;;;;15.67;15.00;;;;;15.18;64.41;-14277.34;4956921;28;45322;-83
2023/05/01 05:22:11;;;;;;;;;18.00;17.33;;;;;14.92;64.30;-14272.72;4956536;28;46245;-84
2023/05/01 05:24:37;;;;;;;;;18.33;16.00;;;;;15.08;64.10;-14275.53;4956691;28;45490;-84
2023/05/01 05:27:03;;;;;;;;;16.00;15.00;;;;;15.07;64.18;-14608.97;4956553;28;45710;-84
2023/05/01 05:29:28;;;;;;;;;18.00;16.67;;;;;15.13;63.88;-14276.34;4956876;28;45354;-83
2023/05/01 05:31:55;;;;;;;;;18.00;14.67;;;;;15.12;64.26;-14610.00;4956460;28;46958;-83
2023/05/01 05:34:21;;;;;;;;;23.67;19.67;;;;;15.27;63.99;-14612.69;4956603;28;45416;-84
2023/05/01 05:36:47;;;;;;;;;17.33;17.33;;;;;14.96;64.44;-14607.00;4956625;28;45439;-83
2023/05/01 05:39:12;;;;;;;;;22.33;19.33;;;;;15.06;64.39;-14942.44;4956856;28;45366;-84
2023/05/01 05:41:38;;;;;;;;;18.33;17.00;;;;;15.25;64.60;-15279.81;4956051;28;46945;-83
2023/05/01 05:44:03;;;;;;;;;16.33;16.33;;;;;15.31;65.02;-15614.66;4956517;28;45440;-83
2023/05/01 05:46:28;;;;;;;;;18.67;16.67;;;;;15.20;64.41;-15278.84;4956573;28;45467;-83
2023/05/01 05:48:53;;;;;;;;;17.33;16.33;;;;;15.34;64.22;-15281.50;4956742;28;45820;-84
2023/05/01 05:51:19;;;;;;;;;18.00;17.33;;;;;15.02;64.11;-15275.28;4955978;28;50358;-83
2023/05/01 05:53:45;;;;;;;;;22.33;17.00;;;;;15.16;64.33;-15278.06;4956285;28;45481;-83
2023/05/01 05:56:10;;;;;;;;;29.67;25.67;;;;;15.09;64.56;-15276.75;4956084;28;45310;-83
2023/05/01 05:58:36;;;;;;;;;23.33;19.67;;;;;14.98;64.96;-15941.78;4956611;28;45616;-83
2023/05/01 06:01:02;;;;;;;;;21.33;17.67;;;;;15.17;64.45;-15612.00;4956015;28;45396;-83
2023/05/01 06:03:27;;;;;;;;;23.67;19.00;;;;;14.90;64.13;-15606.63;4957668;28;45493;-83
2023/05/01 06:05:53;;;;;;;;;22.67;21.00;;;;;15.39;64.76;-15950.03;4959709;28;45529;-84
2023/05/01 06:08:18;;;;;;;;;21.00;20.67;;;;;15.19;64.43;-15612.41;4959887;28;45618;-84
2023/05/01 06:10:44;;;;;;;;;21.33;21.33;;;;;15.43;64.98;-16284.59;4959110;28;45475;-83
2023/05/01 06:13:10;;;;;;;;;17.33;17.33;;;;;15.14;64.82;-16278.63;4959505;28;45461;-85
2023/05/01 06:15:36;;;;;;;;;21.67;21.00;;;;;15.40;65.39;-16951.34;4959566;28;45531;-83
2023/05/01 06:18:01;;;;;;;;;19.67;17.67;;;;;15.23;65.14;-16614.03;4959690;28;45521;-83
2023/05/01 06:20:27;;;;;;;;;19.00;18.00;;;;;15.17;64.65;-16612.72;4959167;28;46250;-83
2023/05/01 06:22:52;;;;;;;;;21.67;19.67;;;;;15.39;64.68;-16617.44;4959209;28;45329;-83
2023/05/01 06:25:18;;;;;;;;;21.00;18.67;;;;;15.45;64.79;-16618.66;4959048;28;45422;-83
2023/05/01 06:27:43;;;;;;;;;26.33;21.00;;;;;15.51;65.59;-16953.81;4959566;28;45448;-84
2023/05/01 06:30:09;;;;;;;;;14.00;12.33;;;;;15.37;65.00;-16950.66;4959127;28;46135;-83
2023/05/01 06:32:35;;;;;;;;;27.00;20.33;;;;;15.46;65.02;-16952.56;4959126;28;45410;-84
2023/05/01 06:35:00;;;;;;;;;18.00;17.33;;;;;15.11;64.70;-16611.53;4959133;28;45415;-83
2023/05/01 06:37:25;;;;;;;;;16.67;16.67;;;;;15.23;64.95;-16947.63;4941858;28;45422;-83
2023/05/01 06:39:50;;;;;;;;;20.67;18.33;;;;;15.17;64.86;-16612.72;4958703;28;46388;-83
2023/05/01 06:42:16;;;;;;;;;20.67;19.67;;;;;15.47;64.72;-16619.09;4958946;28;45412;-83
2023/05/01 06:44:42;;;;;;;;;21.00;15.33;;;;;15.55;64.85;-16954.59;4959268;28;45846;-83
2023/05/01 06:47:07;;;;;;;;;19.67;18.00;;;;;15.42;64.81;-16951.78;4959563;28;45583;-83
2023/05/01 06:49:33;;;;;;;;;25.00;20.33;;;;;15.59;65.17;-17289.34;4958819;28;46304;-83
2023/05/01 06:51:58;;;;;;;;;18.33;16.67;;;;;15.64;65.21;-17290.38;4958944;28;45497;-83
2023/05/01 06:54:25;;;;;;;;;21.00;18.00;;;;;15.67;64.90;-17291.06;4958945;28;45440;-83
2023/05/01 06:56:52;;;;;;;;;22.00;18.67;;;;;15.63;65.48;-17624.00;4959330;28;45527;-83
2023/05/01 06:59:17;;;;;;;;;18.33;17.00;;;;;15.47;65.14;-17286.59;4958879;28;46112;-83
2023/05/01 07:01:43;;;;;;;;;20.33;19.33;;;;;15.69;65.31;-17625.19;4958584;28;45484;-83
2023/05/01 07:04:08;;;;;;;;;17.67;16.33;;;;;15.79;64.82;-17627.66;4959171;28;45359;-83
2023/05/01 07:06:34;;;;;;;;;26.33;20.67;;;;;15.89;65.18;-17629.78;4959317;28;45310;-83
2023/05/01 07:08:59;;;;;;;;;25.00;20.33;;;;;15.95;65.19;-17631.19;4958263;28;46152;-83
2023/05/01 07:11:25;;;;;;;;;21.67;17.00;;;;;15.87;65.06;-17963.13;4958824;28;45465;-83
2023/05/01 07:13:51;;;;;;;;;16.67;15.00;;;;;16.02;64.65;-17632.97;4958833;28;45393;-83
2023/05/01 07:16:16;;;;;;;;;18.33;14.33;;;;;16.01;64.28;-17632.59;4959016;28;45573;-83
2023/05/01 07:18:42;;;;;;;;;11.67;11.67;;;;;16.03;64.51;-17967.00;4958537;28;46355;-83
2023/05/01 07:21:10;;;;;;;;;13.33;13.00;;;;;16.03;64.59;-17967.13;4958444;28;45457;-83
2023/05/01 07:23:36;;;;;;;;;15.33;9.67;;;;;16.46;64.54;-17977.09;4958427;28;45503;-83
2023/05/01 07:26:01;;;;;;;;;12.33;10.67;;;;;16.51;64.46;-17978.31;4958859;28;45481;-83
2023/05/01 07:28:26;;;;;;;;;15.67;13.67;;;;;16.54;64.73;-17979.03;4958379;28;46051;-82
2023/05/01 07:30:52;;;;;;;;;12.33;9.67;;;;;16.53;64.22;-17978.66;4958330;28;45393;-84
2023/05/01 07:33:17;;;;;;;;;15.00;11.33;;;;;16.35;64.46;-17974.59;4958540;28;45497;-83
2023/05/01 07:35:42;;;;;;;;;9.33;8.33;;;;;16.50;64.27;-17977.94;4958695;28;45382;-83
2023/05/01 07:38:08;;;;;;;;;9.33;8.00;;;;;16.39;64.25;-17975.53;4957909;28;45516;-83
2023/05/01 07:40:33;;;;;;;;;11.67;8.33;;;;;16.35;64.13;-17640.50;4958191;28;45466;-82
2023/05/01 07:42:59;;;;;;;;;9.67;5.67;;;;;16.53;64.00;-17978.66;4958459;28;45483;-83
2023/05/01 07:45:24;;;;;;;;;10.00;8.67;;;;;16.70;64.24;-17982.75;4958793;28;45643;-83
2023/05/01 07:47:51;;;;;;;;;5.33;3.67;;;;;16.71;63.83;-17983.00;4958164;28;46940;-83
2023/05/01 07:50:16;;;;;;;;;8.33;8.33;;;;;16.82;64.24;-17985.66;4958172;28;45523;-83
2023/05/01 07:52:42;;;;;;;;;9.00;8.67;;;;;16.82;63.67;-17985.66;4957893;28;45365;-83
2023/05/01 07:55:08;;;;;;;;;15.67;11.33;;;;;16.67;64.05;-17982.16;4958697;28;45595;-83
2023/05/01 07:57:34;;;;;;;;;15.00;11.67;;;;;16.90;64.04;-17987.34;4957922;28;46214;-83
2023/05/01 07:59:59;;;;;;;;;14.33;12.00;;;;;16.67;63.93;-17982.16;4958015;28;45661;-83
2023/05/01 08:02:25;;;;;;;;;19.00;15.33;;;;;16.73;63.62;-17649.19;4957783;28;45612;-83
2023/05/01 08:04:50;;;;;;;;;7.67;6.00;;;;;16.68;63.55;-17648.13;4940995;28;45462;-83
2023/05/01 08:07:16;;;;;;;;;14.33;11.33;;;;;16.51;63.85;-17644.13;4957436;28;46524;-83
2023/05/01 08:09:41;;;;;;;;;15.33;11.33;;;;;16.53;63.39;-17644.59;4957882;28;45442;-83
2023/05/01 08:12:07;;;;;;;;;7.67;7.67;;;;;16.62;63.59;-17646.59;4957892;28;45466;-83
2023/05/01 08:14:32;;;;;;;;;11.67;10.67;;;;;16.61;63.73;-17646.50;4958399;28;45402;-83
2023/05/01 08:16:58;;;;;;;;;9.67;7.33;;;;;16.61;63.45;-17646.50;4957845;28;47359;-83
2023/05/01 08:19:24;;;;;;;;;12.67;9.67;;;;;16.48;63.74;-17643.31;4957542;28;45747;-83
2023/05/01 08:21:49;;;;;;;;;8.00;8.00;;;;;16.53;63.39;-17644.59;4957590;28;45477;-83
2023/05/01 08:24:15;;;;;;;;;10.67;10.67;;;;;16.82;63.95;-17651.31;4958144;28;45315;-83
2023/05/01 08:26:40;;;;;;;;;9.00;7.33;;;;;16.86;63.67;-17652.25;4939480;28;47319;-83
2023/05/01 08:29:05;;;;;;;;;11.33;9.33;;;;;16.70;63.69;-17648.50;4957690;28;45420;-83
2023/05/01 08:31:31;;;;;;;;;9.67;8.33;;;;;16.67;63.42;-17647.78;4957662;28;45350;-83
2023/05/01 08:33:56;;;;;;;;;9.00;7.67;;;;;16.65;63.44;-17647.31;4958054;28;45407;-83
2023/05/01 08:36:22;;;;;;;;;10.33;9.00;;;;;16.84;63.76;-17651.66;4956886;28;45437;-83
2023/05/01 08:38:53;;;;;;;;;11.33;10.33;;;;;16.66;63.90;-17647.53;4957349;28;45839;-83
2023/05/01 08:41:20;;;;;;;;;7.00;4.67;;;;;16.54;63.67;-17644.84;4957736;28;45395;-83
2023/05/01 08:43:47;;;;;;;;;9.00;8.33;;;;;16.87;63.75;-17652.38;4957825;28;45485;-83
2023/05/01 08:46:22;;;;;;;;;6.33;6.33;;;;;16.88;63.79;-17652.72;4957570;28;46452;-84
2023/05/01 08:48:48;;;;;;;;;6.00;6.00;;;;;16.67;63.56;-17647.78;4957358;28;45450;-83
2023/05/01 08:51:18;;;;;;;;;5.00;5.00;;;;;16.80;63.76;-17650.72;4957325;28;45494;-83
2023/05/01 08:53:49;;;;;;;;;8.67;7.33;;;;;16.73;63.71;-17649.06;4957695;28;45548;-83
2023/05/01 08:56:15;;;;;;;;;6.67;6.67;;;;;16.89;63.71;-17652.84;4957208;28;46996;-83
2023/05/01 08:58:44;;;;;;;;;7.33;6.00;;;;;16.67;64.01;-17647.78;4957285;28;45519;-83
2023/05/01 09:01:14;;;;;;;;;8.00;6.00;;;;;16.95;63.51;-17988.53;4957254;28;45427;-83
2023/05/01 09:03:41;;;;;;;;;6.00;6.00;;;;;16.62;63.69;-17980.84;4957672;28;45529;-83
2023/05/01 09:06:08;;;;;;;;;11.67;7.00;;;;;16.88;64.29;-17986.97;4956846;28;47318;-83
2023/05/01 09:08:33;;;;;;;;;6.67;5.00;;;;;16.69;64.23;-17982.53;4957227;28;45362;-83
2023/05/01 09:11:00;;;;;;;;;7.00;4.33;;;;;16.62;63.78;-17980.97;4957130;28;46169;-83
2023/05/01 09:13:25;;;;;;;;;5.33;3.00;;;;;16.78;63.88;-17984.69;4957509;28;45410;-83
2023/05/01 09:15:51;;;;;;;;;4.00;4.00;;;;;16.88;63.78;-17987.09;4957255;28;45460;-83
2023/05/01 09:18:16;;;;;;;;;4.00;4.00;;;;;16.75;63.96;-17983.97;4957080;28;45410;-83
2023/05/01 09:20:42;;;;;;;;;3.67;3.67;;;;;16.73;63.75;-17983.47;4956946;28;45572;-83
2023/05/01 09:23:07;;;;;;;;;5.00;3.00;;;;;16.83;63.99;-17985.91;4940007;28;45422;-83
2023/05/01 09:25:32;;;;;;;;;4.00;2.67;;;;;16.65;63.80;-17981.69;4956910;28;47083;-83
2023/05/01 09:27:58;;;;;;;;;3.67;3.67;;;;;16.91;64.02;-17987.69;4957120;28;45437;-83
2023/05/01 09:30:34;;;;;;;;;5.67;4.33;;;;;16.76;63.77;-17984.09;4957213;28;45386;-83
2023/05/01 09:33:06;;;;;;;;;5.33;4.00;;;;;16.95;64.11;-17988.53;4957499;28;45459;-83
2023/05/01 09:35:32;;;;;;;;;4.00;2.67;;;;;16.75;63.95;-17983.84;4956553;28;46398;-83
2023/05/01 09:37:58;;;;;;;;;3.33;3.33;;;;;16.81;64.35;-17985.41;4957651;28;45510;-83
2023/05/01 09:40:27;;;;;;;;;3.33;3.33;;;;;16.84;63.90;-17986.13;4960403;28;45630;-83
2023/05/01 09:42:55;;;;;;;;;4.00;2.00;;;;;16.70;64.05;-17982.66;4960654;28;45354;-83
2023/05/01 09:45:22;;;;;;;;;8.67;7.33;;;;;17.08;64.07;-18326.25;4960218;28;46288;-83
2023/05/01 09:47:48;;;;;;;;;3.00;3.00;;;;;17.10;64.56;-18326.59;4959881;28;45393;-83
2023/05/01 09:50:31;;;;;;;;;2.33;2.33;;;;;16.92;64.58;-18322.19;4960141;28;45837;-83
2023/05/01 09:52:56;;;;;;;;;1.33;1.33;;;;;17.12;64.11;-18326.97;4960446;28;45557;-83
2023/05/01 09:55:25;;;;;;;;;3.67;2.00;;;;;17.11;64.69;-18326.72;4959945;28;46538;-83
2023/05/01 09:57:50;;;;;;;;;4.00;4.00;;;;;17.02;64.33;-18324.63;4960023;28;45496;-82
2023/05/01 10:00:17;;;;;;;;;2.67;2.67;;;;;17.08;64.41;-18326.25;4959855;28;45649;-83
2023/05/01 10:02:45;;;;;;;;;4.00;3.00;;;;;17.06;64.15;-18325.63;4959899;28;45540;-84
2023/05/01 10:05:11;;;;;;;;;3.00;3.00;;;;;16.97;64.68;-18323.53;4959789;28;46478;-83
2023/05/01 10:07:38;;;;;;;;;2.00;2.00;;;;;17.01;64.26;-18324.50;4959701;28;46104;-83
2023/05/01 10:10:21;;;;;;;;;4.00;3.33;;;;;17.04;64.28;-18325.25;4959779;28;45422;-82
2023/05/01 10:12:47;;;;;;;;;4.33;4.00;;;;;17.06;64.64;-18325.63;4958936;28;45591;-83
2023/05/01 10:15:14;;;;;;;;;5.00;5.00;;;;;17.08;64.67;-18660.53;4959643;28;45817;-83
2023/05/01 10:17:44;;;;;;;;;3.00;2.00;;;;;16.71;64.23;-18651.47;4941686;28;46077;-83
2023/05/01 10:20:11;;;;;;;;;4.67;4.00;;;;;16.75;64.74;-18652.47;4959447;28;45520;-83
2023/05/01 10:22:39;;;;;;;;;5.00;2.33;;;;;16.98;64.84;-18992.34;4960093;28;45451;-83
2023/05/01 10:25:13;;;;;;;;;8.00;8.00;;;;;17.24;65.02;-18998.91;4959358;28;46524;-85
2023/05/01 10:27:39;;;;;;;;;4.00;4.00;;;;;17.05;65.05;-18994.28;4959517;28;45862;-84
2023/05/01 10:30:06;;;;;;;;;4.00;4.00;;;;;17.21;65.16;-18998.13;4959746;28;45450;-85
2023/05/01 10:32:36;;;;;;;;;4.67;4.33;;;;;17.34;64.79;-19001.34;4959678;28;45512;-82
2023/05/01 10:35:07;;;;;;;;;4.33;4.33;;;;;17.34;64.78;-19001.34;4959414;28;47129;-82
2023/05/01 10:37:57;;;;;;;;;3.00;3.00;;;;;17.33;65.20;-19001.09;4942018;28;45592;-83
2023/05/01 10:40:37;;;;;;;;;9.67;7.33;;;;;17.09;65.18;-19329.69;4959497;28;46045;-82
2023/05/01 10:43:29;;;;;;;;;3.67;3.67;;;;;17.33;65.32;-19335.56;4959759;28;45379;-82
2023/05/01 10:46:15;;;;;;;;;5.00;5.00;;;;;17.21;65.25;-19332.69;4959130;28;45996;-82
2023/05/01 10:48:45;;;;;;;;;4.00;4.00;;;;;17.30;64.80;-19334.91;4962985;28;45417;-83
2023/05/01 10:51:14;;;;;;;;;5.00;3.00;;;;;17.14;65.07;-19330.84;4961193;28;45557;-82
2023/05/01 10:53:44;;;;;;;;;5.33;5.00;;;;;17.43;65.22;-19338.31;4979217;28;45751;-83
2023/05/01 10:56:30;;;;;;;;;7.67;5.67;;;;;17.48;65.17;-19339.63;4961237;28;45895;-83
2023/05/01 10:58:59;;;;;;;;;5.00;4.00;;;;;17.57;65.04;-19676.47;4898973;29;45427;-82
2023/05/01 11:01:35;;;;;;;;;3.00;2.00;;;;;17.93;64.99;-19685.81;4918076;28;46002;-82
2023/05/01 11:04:07;;;;;;;;;3.33;2.00;;;;;17.90;65.20;-19686.97;4918722;28;45551;-82
2023/05/01 11:06:34;;;;;;;;;6.67;6.67;;;;;18.54;65.05;-19703.69;4918354;28;45469;-83
2023/05/01 11:09:03;;;;;;;;;7.00;6.67;;;;;18.84;64.97;-19711.44;4918290;28;45479;-82
2023/05/01 11:11:29;;;;;;;;;5.33;5.33;;;;;19.22;64.98;-19721.31;4918389;28;45470;-82
2023/05/01 11:14:04;;;;;;;;;6.33;5.67;;;;;19.35;64.10;-19724.94;4918590;28;45411;-83
2023/05/01 11:16:38;;;;;;;;;6.00;5.00;;;;;19.58;64.30;-19730.94;4917684;28;47257;-82
2023/05/01 11:19:04;;;;;;;;;9.00;6.00;;;;;19.66;63.26;-19732.94;4918017;28;45484;-82
2023/05/01 11:21:33;;;;;;;;;5.00;5.00;;;;;19.66;63.05;-19732.94;4918250;28;45470;-82
2023/05/01 11:24:03;;;;;;;;;7.67;3.67;;;;;19.62;62.86;-19731.88;4917631;28;45480;-82
2023/05/01 11:26:29;;;;;;;;;5.00;4.33;;;;;19.54;62.52;-19727.75;4917958;28;45533;-83
2023/05/01 11:28:57;;;;;;;;;2.00;2.00;;;;;19.10;63.16;-19716.41;4918072;28;45473;-83
2023/05/01 11:31:25;;;;;;;;;4.00;3.33;;;;;19.48;63.06;-19726.31;4917703;28;45587;-82
2023/05/01 11:33:50;;;;;;;;;3.00;1.67;;;;;19.25;63.28;-19720.16;4918362;28;45673;-82
2023/05/01 11:36:15;;;;;;;;;1.25;1.00;;;;;19.66;63.53;-19732.81;4953363;28;47468;-82
2023/05/01 11:38:58;;;;;;;;;4.00;3.00;;;;;20.00;62.96;-19741.88;4993623;28;45500;-83
2023/05/01 11:41:27;;;;;;;;;4.33;4.33;;;;;20.44;62.02;-19753.22;4997701;28;45549;-83
2023/05/01 11:43:59;;;;;;;;;3.25;2.25;;;;;20.84;62.16;-19763.75;4980003;28;45460;-83
2023/05/01 11:46:29;;;;;;;;;3.33;3.33;;;;;20.92;60.88;-19763.63;4997309;28;46720;-83
2023/05/01 11:49:00;;;;;;;;;2.67;2.00;;;;;21.17;61.43;-19770.28;4990886;28;45507;-82
2023/05/01 11:51:27;;;;;;;;;3.25;3.25;;;;;21.29;59.62;-19436.78;4960330;28;45541;-83
2023/05/01 11:54:04;;;;;;;;;1.00;1.00;;;;;21.42;59.63;-19440.06;4978257;28;45532;-82
2023/05/01 11:56:31;;;;;;;;;2.00;2.00;;;;;21.35;59.08;-19101.72;4977746;28;45408;-82
2023/05/01 11:58:59;;;;;;;;;3.00;0.50;;;;;20.96;61.75;-19764.69;4977046;28;45900;-82
2023/05/01 12:01:34;;;;;;;;;1.00;0.00;;;;;21.03;63.20;-19768.53;4959219;28;45487;-83
2023/05/01 12:04:03;;;;;;;;;0.00;0.00;;;;;20.52;63.90;-19755.34;4978163;28;45589;-82
2023/05/01 12:06:45;;;;;;;;;1.00;0.00;;;;;20.44;63.79;-19753.34;4977659;28;46407;-83
2023/05/01 12:09:19;;;;;;;;;0.25;0.00;;;;;20.19;64.31;-19746.69;4977564;28;45483;-83
2023/05/01 12:11:49;;;;;;;;;0.00;0.00;;;;;19.50;64.30;-19728.81;4977730;28;45427;-83
2023/05/01 12:14:16;;;;;;;;;0.00;0.00;;;;;19.76;64.90;-19735.59;4977550;28;45373;-82
2023/05/01 12:16:42;;;;;;;;;0.00;0.00;;;;;19.53;65.43;-19729.59;4977529;28;45494;-83
2023/05/01 12:19:08;;;;;;;;;0.00;0.00;;;;;19.10;65.09;-19718.25;4959989;28;45533;-83
2023/05/01 12:21:36;;;;;;;;;0.00;0.00;;;;;19.05;65.25;-19717.06;4977551;28;45936;-83
2023/05/01 12:24:11;;;;;;;;;0.00;0.00;;;;;19.25;65.84;-19722.25;4977824;28;45392;-83
2023/05/01 12:26:36;;;;;;;;;0.00;0.00;;;;;18.77;66.04;-19709.84;4977387;28;46087;-83
2023/05/01 12:29:07;;;;;;;;;0.00;0.00;;;;;18.83;65.69;-19711.31;4976931;28;45439;-83
2023/05/01 12:31:33;;;;;;;;;0.67;0.00;;;;;18.35;66.08;-19698.88;4977328;28;45499;-83
2023/05/01 12:34:01;;;;;;;;;0.00;0.00;;;;;18.82;66.80;-19711.03;4977626;28;45440;-83
2023/05/01 12:36:28;;;;;;;;;0.00;0.00;;;;;18.52;66.91;-19703.16;4975812;28;47138;-82
2023/05/01 12:39:02;;;;;;;;;0.00;0.00;;;;;18.61;67.04;-19705.44;4977209;28;45377;-83
2023/05/01 12:41:33;;;;;;;;;0.00;0.00;;;;;18.52;67.36;-19703.16;4977202;28;45360;-83
2023/05/01 12:43:58;;;;;;;;;0.00;0.00;;;;;18.13;66.90;-19693.00;4977095;28;45455;-82
2023/05/01 12:46:24;;;;;;;;;2.00;0.67;;;;;18.04;67.31;-19690.72;4976720;28;46737;-83
2023/05/01 12:48:49;;;;;;;;;0.00;0.00;;;;;18.11;67.04;-19692.47;4975660;28;45460;-83
2023/05/01 12:51:19;;;;;;;;;0.50;0.50;;;;;18.12;67.24;-19692.88;4976913;28;45449;-83
2023/05/01 12:53:44;;;;;;;;;0.00;0.00;;;;;18.17;67.67;-19694.06;4977336;28;45467;-83
2023/05/01 12:56:22;;;;;;;;;0.00;0.00;;;;;18.13;67.76;-19693.13;4958369;28;47174;-83
2023/05/01 12:58:48;;;;;;;;;0.00;0.00;;;;;17.59;68.01;-19678.81;4976769;28;45452;-83
2023/05/01 13:01:26;;;;;;;;;1.00;0.00;;;;;17.68;67.82;-19681.22;4975269;28;45554;-84
2023/05/01 13:03:53;;;;;;;;;2.00;0.67;;;;;18.01;68.21;-19689.94;4977178;28;45657;-84
2023/05/01 13:06:19;;;;;;;;;1.00;1.00;;;;;17.91;69.01;-19687.25;4976717;28;46358;-83
2023/05/01 13:08:44;;;;;;;;;1.00;1.00;;;;;17.98;68.36;-19688.97;4976712;28;45433;-83
2023/05/01 13:11:15;;;;;;;;;0.67;0.67;;;;;17.97;69.77;-19688.84;4959159;28;45540;-83
2023/05/01 13:13:42;;;;;;;;;1.67;0.00;;;;;17.79;69.63;-19684.16;4980573;28;45503;-83
2023/05/01 13:16:09;;;;;;;;;1.00;1.00;;;;;17.95;70.46;-19688.19;4980155;28;45416;-83
2023/05/01 13:18:43;;;;;;;;;2.00;2.00;;;;;17.80;69.43;-19684.44;4980260;28;45497;-83
2023/05/01 13:21:11;;;;;;;;;1.00;1.00;;;;;17.93;70.21;-19687.78;4980239;28;45373;-83
2023/05/01 13:23:37;;;;;;;;;0.00;0.00;;;;;17.83;69.73;-19685.09;4980512;28;45496;-83
2023/05/01 13:26:05;;;;;;;;;2.33;2.33;;;;;17.65;69.87;-19680.41;4979679;28;46227;-83
2023/05/01 13:28:33;;;;;;;;;2.67;2.00;;;;;18.22;69.92;-19695.28;4979946;28;45474;-83
2023/05/01 13:30:59;;;;;;;;;1.33;1.33;;;;;18.43;70.36;-19700.88;4979910;28;45404;-83
2023/05/01 13:33:24;;;;;;;;;2.67;1.00;;;;;18.47;69.89;-19701.97;4980279;28;45389;-83
2023/05/01 13:35:49;;;;;;;;;3.00;3.00;;;;;18.61;69.94;-19705.44;4979918;28;46910;-83
2023/05/01 13:38:15;;;;;;;;;2.00;2.00;;;;;18.41;68.92;-19700.22;4979760;28;45535;-83
2023/05/01 13:40:40;;;;;;;;;0.67;0.67;;;;;18.64;68.75;-19706.38;4979521;28;45402;-82
2023/05/01 13:43:13;;;;;;;;;0.00;0.00;;;;;18.75;67.82;-19709.31;4979990;28;45555;-83
2023/05/01 13:45:38;;;;;;;;;2.67;1.33;;;;;18.91;68.06;-19713.31;4979744;28;46982;-83
2023/05/01 13:48:04;;;;;;;;;1.00;1.00;;;;;19.17;67.33;-19720.13;4979830;28;45445;-82
2023/05/01 13:50:29;;;;;;;;;4.00;4.00;;;;;19.14;66.35;-19719.31;4998474;28;45417;-82
2023/05/01 13:52:55;;;;;;;;;1.00;1.00;;;;;18.93;66.38;-19713.97;4999681;28;45425;-82
2023/05/01 13:55:20;;;;;;;;;3.00;2.00;;;;;19.07;66.24;-19717.59;4998687;28;46662;-83
2023/05/01 13:57:46;;;;;;;;;1.00;1.00;;;;;19.35;66.72;-19724.94;4999168;28;45382;-82
2023/05/01 14:00:18;;;;;;;;;2.00;1.00;;;;;19.19;65.75;-19720.78;4998969;28;47041;-83
2023/05/01 14:02:47;;;;;;;;;1.00;1.00;;;;;19.29;65.80;-19723.19;4999284;28;45882;-82
2023/05/01 14:05:14;;;;;;;;;3.00;3.00;;;;;19.13;65.30;-19719.19;4998909;28;45711;-83
2023/05/01 14:07:48;;;;;;;;;1.67;1.67;;;;;18.90;64.94;-19713.03;4999083;28;45780;-82
2023/05/01 14:10:14;;;;;;;;;4.00;3.33;;;;;19.02;64.69;-19716.25;4997479;28;45457;-83
2023/05/01 14:12:39;;;;;;;;;4.67;4.67;;;;;19.06;64.58;-19717.31;4999261;28;45423;-82
2023/05/01 14:15:09;;;;;;;;;4.00;4.00;;;;;18.86;63.97;-19711.97;4998789;28;46948;-83
2023/05/01 14:17:36;;;;;;;;;4.00;4.00;;;;;18.76;63.65;-19709.44;4981113;28;45459;-82
2023/05/01 14:20:04;;;;;;;;;5.00;3.33;;;;;19.11;63.78;-19718.66;4998813;28;45464;-83
2023/05/01 14:22:42;;;;;;;;;1.00;1.00;;;;;19.15;64.13;-19719.72;4999133;28;45530;-83
2023/05/01 14:25:24;;;;;;;;;4.67;4.33;;;;;18.94;63.83;-19714.25;4997516;28;45592;-83
2023/05/01 14:27:51;;;;;;;;;5.00;5.00;;;;;19.08;63.41;-19717.72;4998587;28;45432;-83
2023/05/01 14:30:32;;;;;;;;;5.67;5.67;;;;;18.98;63.53;-19715.19;4998802;28;45383;-82
2023/05/01 14:33:00;;;;;;;;;4.00;4.00;;;;;19.06;62.42;-19717.19;4998937;28;45409;-83
2023/05/01 14:35:26;;;;;;;;;3.67;3.67;;;;;19.07;63.07;-19717.59;4998244;28;46495;-83
2023/05/01 14:37:51;;;;;;;;;5.00;3.67;;;;;18.90;62.80;-19713.03;4998174;28;45792;-84
2023/05/01 14:40:28;;;;;;;;;2.67;2.67;;;;;18.67;62.85;-19707.03;4998420;28;45859;-83
2023/05/01 14:42:54;;;;;;;;;4.00;4.00;;;;;19.02;62.84;-19716.13;4998819;28;45437;-83
2023/05/01 14:45:19;;;;;;;;;3.33;3.33;;;;;19.03;62.99;-19716.50;4980650;28;48209;-83
2023/05/01 14:47:46;;;;;;;;;6.33;4.67;;;;;18.71;62.67;-19708.22;4998291;28;45374;-82
2023/05/01 14:50:17;;;;;;;;;5.00;4.00;;;;;19.13;63.01;-19719.19;4998486;28;45797;-83
2023/05/01 14:52:42;;;;;;;;;3.00;3.00;;;;;18.28;62.86;-19697.00;4980621;28;45532;-82
2023/05/01 14:55:10;;;;;;;;;4.00;2.00;;;;;18.89;62.97;-19712.78;4998287;28;46598;-82
2023/05/01 14:57:36;;;;;;;;;2.00;2.00;;;;;19.19;62.34;-19720.66;4998186;28;45494;-83
2023/05/01 15:00:03;;;;;;;;;5.67;3.00;;;;;18.89;62.52;-19712.91;4996865;28;45451;-82
2023/05/01 15:02:29;;;;;;;;;6.67;3.67;;;;;18.95;61.42;-19712.56;4998236;28;45673;-83
2023/05/01 15:04:54;;;;;;;;;2.00;2.00;;;;;18.88;61.30;-19710.53;4997833;28;46946;-83
2023/05/01 15:07:21;;;;;;;;;3.00;3.00;;;;;19.04;61.78;-19714.81;4997645;28;45476;-83
2023/05/01 15:09:46;;;;;;;;;3.33;2.33;;;;;19.16;61.58;-19718.03;4998248;28;45471;-83
2023/05/01 15:12:11;;;;;;;;;4.00;3.00;;;;;19.13;61.58;-19381.66;4980578;28;45499;-83
2023/05/01 15:14:37;;;;;;;;;2.00;2.00;;;;;19.03;61.08;-19379.06;4997839;28;46070;-82
2023/05/01 15:17:02;;;;;;;;;3.00;3.00;;;;;18.79;60.99;-19373.03;4997846;28;45541;-83
2023/05/01 15:19:27;;;;;;;;;3.00;3.00;;;;;18.81;59.66;-18367.50;4997688;28;45423;-83
2023/05/01 15:21:53;;;;;;;;;2.00;2.00;;;;;18.74;60.36;-18701.34;4997857;28;45443;-83
2023/05/01 15:24:18;;;;;;;;;2.00;2.00;;;;;18.72;60.45;-18700.72;4979881;28;47093;-82
2023/05/01 15:26:44;;;;;;;;;2.33;2.33;;;;;19.06;60.44;-18709.13;4997805;28;45815;-82
2023/05/01 15:29:10;;;;;;;;;5.00;5.00;;;;;18.84;59.51;-18368.25;4997793;28;45395;-83
2023/05/01 15:31:35;;;;;;;;;2.00;2.00;;;;;18.81;59.63;-18367.50;4997869;28;45336;-83
2023/05/01 15:34:02;;;;;;;;;3.67;2.00;;;;;18.97;59.79;-18035.97;4997612;28;45432;-83
2023/05/01 15:36:27;;;;;;;;;1.00;1.00;;;;;19.02;59.12;-18037.19;4995881;28;45420;-82
2023/05/01 15:38:52;;;;;;;;;2.33;2.00;;;;;18.58;59.11;-17691.47;4979986;28;45386;-83
2023/05/01 15:41:18;;;;;;;;;3.00;2.00;;;;;18.85;59.40;-17697.69;4997849;28;45409;-82
2023/05/01 15:43:43;;;;;;;;;0.00;0.00;;;;;19.00;58.91;-17365.69;4997440;28;45927;-83
2023/05/01 15:46:09;;;;;;;;;1.33;1.33;;;;;19.00;58.46;-17030.00;4997400;28;47598;-83
2023/05/01 15:48:35;;;;;;;;;1.33;1.00;;;;;18.41;58.59;-17352.38;4997381;28;45751;-82
2023/05/01 15:51:01;;;;;;;;;1.00;1.00;;;;;18.97;58.12;-16693.97;4997435;28;45507;-83
2023/05/01 15:53:26;;;;;;;;;1.00;1.00;;;;;18.68;58.78;-16687.66;4979392;28;48116;-83
2023/05/01 15:55:55;;;;;;;;;1.00;1.00;;;;;18.77;57.73;-16018.59;4997359;28;45396;-85
2023/05/01 15:58:21;;;;;;;;;1.00;1.00;;;;;18.26;58.21;-16008.34;4997160;28;45468;-85
2023/05/01 16:00:47;;;;;;;;;1.00;1.00;;;;;18.30;58.20;-16009.06;4995869;28;45438;-83
2023/05/01 16:03:12;;;;;;;;;1.00;1.00;;;;;18.72;58.35;-16017.66;4995749;28;47830;-83
2023/05/01 16:05:38;;;;;;;;;1.00;1.00;;;;;18.81;57.85;-16019.34;4996907;28;45348;-83
2023/05/01 16:08:05;;;;;;;;;3.00;3.00;;;;;18.85;57.79;-15684.66;4997161;28;45444;-83
2023/05/01 16:10:35;;;;;;;;;1.67;1.00;;;;;18.75;58.06;-15682.75;4997374;28;45411;-83
2023/05/01 16:13:07;;;;;;;;;1.33;1.00;;;;;18.79;57.99;-15683.47;4996852;28;47103;-83
2023/05/01 16:15:32;;;;;;;;;1.00;1.00;;;;;18.68;57.93;-15345.81;4996874;28;45485;-83
2023/05/01 16:17:58;;;;;;;;;1.00;1.00;;;;;18.44;57.99;-15676.59;4997135;28;45478;-83
2023/05/01 16:20:27;;;;;;;;;2.33;0.67;;;;;18.50;58.14;-15677.72;4996839;28;45530;-84
2023/05/01 16:22:53;;;;;;;;;1.00;1.00;;;;;18.69;58.31;-15681.44;4996881;28;46757;-83